sensor_id;sensor_type;location;lat;lon;timestamp;pressure;altitude;pressure_sealevel;temperature;humidity
71697;BME280;68167;59.120;37.898;2023-09-12T00:01:55;100520.78;;;11.48;78.18
71697;BME280;68167;59.120;37.898;2023-09-12T00:04:21;100514.31;;;11.44;78.13
71697;BME280;68167;59.120;37.898;2023-09-12T00:06:48;100551.47;;;11.67;78.36
71697;BME280;68167;59.120;37.898;2023-09-12T00:09:14;100491.41;;;11.26;78.35
71697;BME280;68167;59.120;37.898;2023-09-12T00:11:40;100504.06;;;11.36;78.42
71697;BME280;68167;59.120;37.898;2023-09-12T00:14:08;100535.00;;;11.53;78.57
71697;BME280;68167;59.120;37.898;2023-09-12T00:16:35;100527.91;;;11.42;78.22
71697;BME280;68167;59.120;37.898;2023-09-12T00:19:01;100538.22;;;11.55;78.74
71697;BME280;68167;59.120;37.898;2023-09-12T00:21:27;100481.47;;;11.21;78.32
71697;BME280;68167;59.120;37.898;2023-09-12T00:23:53;100552.53;;;11.66;78.71
71697;BME280;68167;59.120;37.898;2023-09-12T00:26:20;100553.09;;;11.68;78.49
71697;BME280;68167;59.120;37.898;2023-09-12T00:28:47;100513.28;;;11.45;78.61
71697;BME280;68167;59.120;37.898;2023-09-12T00:31:14;100500.59;;;11.35;78.42
71697;BME280;68167;59.120;37.898;2023-09-12T00:33:40;100554.72;;;11.69;78.60
71697;BME280;68167;59.120;37.898;2023-09-12T00:36:06;100513.84;;;11.47;78.59
71697;BME280;68167;59.120;37.898;2023-09-12T00:38:32;100542.84;;;11.60;78.17
71697;BME280;68167;59.120;37.898;2023-09-12T00:40:59;100546.78;;;11.58;78.19
71697;BME280;68167;59.120;37.898;2023-09-12T00:43:25;100544.53;;;11.49;77.89
71697;BME280;68167;59.120;37.898;2023-09-12T00:45:51;100556.81;;;11.50;78.31
71697;BME280;68167;59.120;37.898;2023-09-12T00:48:18;100544.38;;;11.39;78.34
71697;BME280;68167;59.120;37.898;2023-09-12T00:50:46;100529.28;;;11.28;77.90
71697;BME280;68167;59.120;37.898;2023-09-12T00:53:14;100493.94;;;10.99;77.99
71697;BME280;68167;59.120;37.898;2023-09-12T00:55:46;100550.50;;;11.23;78.17
71697;BME280;68167;59.120;37.898;2023-09-12T00:58:15;100511.44;;;10.95;78.11
71697;BME280;68167;59.120;37.898;2023-09-12T01:00:42;100551.38;;;11.12;78.20
71697;BME280;68167;59.120;37.898;2023-09-12T01:03:08;100505.84;;;10.80;78.17
71697;BME280;68167;59.120;37.898;2023-09-12T01:05:35;100543.06;;;10.92;78.12
71697;BME280;68167;59.120;37.898;2023-09-12T01:08:01;100541.13;;;10.87;78.38
71697;BME280;68167;59.120;37.898;2023-09-12T01:10:29;100520.75;;;10.64;78.47
71697;BME280;68167;59.120;37.898;2023-09-12T01:12:55;100538.75;;;10.74;78.54
71697;BME280;68167;59.120;37.898;2023-09-12T01:15:22;100509.19;;;10.59;78.66
71697;BME280;68167;59.120;37.898;2023-09-12T01:17:48;100533.91;;;10.71;78.83
71697;BME280;68167;59.120;37.898;2023-09-12T01:20:21;100529.88;;;10.68;78.62
71697;BME280;68167;59.120;37.898;2023-09-12T01:23:17;100514.75;;;10.57;78.64
71697;BME280;68167;59.120;37.898;2023-09-12T01:28:19;100512.81;;;10.52;79.38
71697;BME280;68167;59.120;37.898;2023-09-12T01:30:50;100520.06;;;10.57;79.45
71697;BME280;68167;59.120;37.898;2023-09-12T01:33:18;100514.75;;;10.57;79.82
71697;BME280;68167;59.120;37.898;2023-09-12T01:35:46;100476.81;;;10.33;79.97
71697;BME280;68167;59.120;37.898;2023-09-12T01:38:13;100486.31;;;10.46;80.19
71697;BME280;68167;59.120;37.898;2023-09-12T01:40:48;100494.75;;;10.54;80.48
71697;BME280;68167;59.120;37.898;2023-09-12T01:43:16;100524.41;;;10.75;80.32
71697;BME280;68167;59.120;37.898;2023-09-12T01:45:45;100486.19;;;10.52;80.48
71697;BME280;68167;59.120;37.898;2023-09-12T01:48:19;100519.97;;;10.80;80.53
71697;BME280;68167;59.120;37.898;2023-09-12T01:50:46;100519.16;;;10.80;80.54
71697;BME280;68167;59.120;37.898;2023-09-12T01:53:12;100506.91;;;10.79;80.42
71697;BME280;68167;59.120;37.898;2023-09-12T01:55:43;100529.75;;;10.92;80.36
71697;BME280;68167;59.120;37.898;2023-09-12T01:58:14;100550.91;;;10.98;80.23
71697;BME280;68167;59.120;37.898;2023-09-12T02:00:41;100467.31;;;10.54;80.61
71697;BME280;68167;59.120;37.898;2023-09-12T02:03:08;100538.97;;;11.01;80.60
71697;BME280;68167;59.120;37.898;2023-09-12T02:05:35;100530.66;;;10.97;80.50
71697;BME280;68167;59.120;37.898;2023-09-12T02:08:03;100522.56;;;10.92;80.03
71697;BME280;68167;59.120;37.898;2023-09-12T02:10:31;100515.44;;;10.81;79.62
71697;BME280;68167;59.120;37.898;2023-09-12T02:12:58;100533.06;;;10.82;79.78
71697;BME280;68167;59.120;37.898;2023-09-12T02:15:25;100524.41;;;10.75;79.79
71697;BME280;68167;59.120;37.898;2023-09-12T02:17:52;100495.69;;;10.48;79.85
71697;BME280;68167;59.120;37.898;2023-09-12T02:20:19;100460.97;;;10.27;80.04
71697;BME280;68167;59.120;37.898;2023-09-12T02:22:48;100497.53;;;10.48;80.16
71697;BME280;68167;59.120;37.898;2023-09-12T02:25:15;100539.31;;;10.76;80.45
71697;BME280;68167;59.120;37.898;2023-09-12T02:27:41;100499.25;;;10.54;80.40
71697;BME280;68167;59.120;37.898;2023-09-12T02:30:08;100544.19;;;10.79;80.38
71697;BME280;68167;59.120;37.898;2023-09-12T02:32:36;100523.50;;;10.69;80.40
71697;BME280;68167;59.120;37.898;2023-09-12T02:35:03;100493.03;;;10.48;80.46
71697;BME280;68167;59.120;37.898;2023-09-12T02:37:31;100509.91;;;10.54;80.47
71697;BME280;68167;59.120;37.898;2023-09-12T02:39:58;100534.38;;;10.68;80.60
71697;BME280;68167;59.120;37.898;2023-09-12T02:42:25;100539.22;;;10.71;80.56
71697;BME280;68167;59.120;37.898;2023-09-12T02:44:51;100524.59;;;10.56;80.31
71697;BME280;68167;59.120;37.898;2023-09-12T02:47:19;100539.94;;;10.66;80.33
71697;BME280;68167;59.120;37.898;2023-09-12T02:49:45;100531.38;;;10.64;80.79
71697;BME280;68167;59.120;37.898;2023-09-12T02:52:12;100542.13;;;10.69;81.17
71697;BME280;68167;59.120;37.898;2023-09-12T02:54:39;100534.72;;;10.71;81.18
71697;BME280;68167;59.120;37.898;2023-09-12T02:57:05;100503.78;;;10.53;80.76
71697;BME280;68167;59.120;37.898;2023-09-12T02:59:32;100494.31;;;10.46;81.08
71697;BME280;68167;59.120;37.898;2023-09-12T03:01:58;100546.03;;;10.78;81.22
71697;BME280;68167;59.120;37.898;2023-09-12T03:04:25;100544.66;;;10.76;80.99
71697;BME280;68167;59.120;37.898;2023-09-12T03:06:54;100529.88;;;10.68;80.90
71697;BME280;68167;59.120;37.898;2023-09-12T03:09:21;100494.97;;;10.53;81.17
71697;BME280;68167;59.120;37.898;2023-09-12T03:11:49;100534.91;;;10.81;81.30
71697;BME280;68167;59.120;37.898;2023-09-12T03:14:16;100542.50;;;10.89;81.26
71697;BME280;68167;59.120;37.898;2023-09-12T03:16:43;100503.72;;;10.65;80.92
71697;BME280;68167;59.120;37.898;2023-09-12T03:19:10;100554.06;;;10.95;80.98
71697;BME280;68167;59.120;37.898;2023-09-12T03:21:36;100529.34;;;10.83;80.91
71697;BME280;68167;59.120;37.898;2023-09-12T03:24:07;100510.09;;;10.64;80.61
71697;BME280;68167;59.120;37.898;2023-09-12T03:26:35;100516.78;;;10.67;80.83
71697;BME280;68167;59.120;37.898;2023-09-12T03:29:03;100517.69;;;10.72;80.75
71697;BME280;68167;59.120;37.898;2023-09-12T03:31:30;100550.81;;;10.93;80.90
71697;BME280;68167;59.120;37.898;2023-09-12T03:33:57;100480.28;;;10.50;81.36
71697;BME280;68167;59.120;37.898;2023-09-12T03:36:25;100557.78;;;11.11;81.36
71697;BME280;68167;59.120;37.898;2023-09-12T03:38:51;100541.63;;;11.01;81.46
71697;BME280;68167;59.120;37.898;2023-09-12T03:41:18;100555.19;;;11.16;81.23
71697;BME280;68167;59.120;37.898;2023-09-12T03:43:45;100482.13;;;10.78;81.46
71697;BME280;68167;59.120;37.898;2023-09-12T03:46:12;100527.31;;;11.07;81.56
71697;BME280;68167;59.120;37.898;2023-09-12T03:48:38;100549.47;;;11.24;81.41
71697;BME280;68167;59.120;37.898;2023-09-12T03:51:05;100561.59;;;11.32;81.47
71697;BME280;68167;59.120;37.898;2023-09-12T03:53:32;100530.41;;;11.15;81.54
71697;BME280;68167;59.120;37.898;2023-09-12T03:55:58;100538.72;;;11.19;81.45
71697;BME280;68167;59.120;37.898;2023-09-12T03:58:26;100576.94;;;11.41;81.36
71697;BME280;68167;59.120;37.898;2023-09-12T04:00:53;100531.28;;;11.21;81.51
71697;BME280;68167;59.120;37.898;2023-09-12T04:03:19;100512.72;;;11.09;81.50
71697;BME280;68167;59.120;37.898;2023-09-12T04:05:47;100573.63;;;11.51;81.32
71697;BME280;68167;59.120;37.898;2023-09-12T04:08:13;100547.53;;;11.36;81.29
71697;BME280;68167;59.120;37.898;2023-09-12T04:10:40;100568.78;;;11.48;80.87
71697;BME280;68167;59.120;37.898;2023-09-12T04:13:07;100584.38;;;11.56;81.14
71697;BME280;68167;59.120;37.898;2023-09-12T04:15:33;100590.09;;;11.65;80.89
71697;BME280;68167;59.120;37.898;2023-09-12T04:18:00;100558.34;;;11.46;80.85
71697;BME280;68167;59.120;37.898;2023-09-12T04:20:27;100551.09;;;11.42;80.80
71697;BME280;68167;59.120;37.898;2023-09-12T04:22:53;100536.06;;;11.36;80.84
71697;BME280;68167;59.120;37.898;2023-09-12T04:25:20;100553.91;;;11.52;80.69
71697;BME280;68167;59.120;37.898;2023-09-12T04:27:47;100537.59;;;11.48;80.74
71697;BME280;68167;59.120;37.898;2023-09-12T04:30:13;100564.28;;;11.70;80.64
71697;BME280;68167;59.120;37.898;2023-09-12T04:32:40;100575.94;;;11.81;80.53
71697;BME280;68167;59.120;37.898;2023-09-12T04:35:07;100518.94;;;11.48;80.81
71697;BME280;68167;59.120;37.898;2023-09-12T04:37:34;100585.22;;;11.95;80.89
71697;BME280;68167;59.120;37.898;2023-09-12T04:40:00;100548.47;;;11.80;80.75
71697;BME280;68167;59.120;37.898;2023-09-12T04:42:27;100567.28;;;11.91;80.36
71697;BME280;68167;59.120;37.898;2023-09-12T04:44:53;100591.09;;;12.14;80.26
71697;BME280;68167;59.120;37.898;2023-09-12T04:47:20;100589.63;;;12.23;80.28
71697;BME280;68167;59.120;37.898;2023-09-12T04:49:47;100572.41;;;12.14;80.21
71697;BME280;68167;59.120;37.898;2023-09-12T04:52:14;100567.38;;;12.17;80.00
71697;BME280;68167;59.120;37.898;2023-09-12T04:54:40;100521.94;;;11.91;79.62
71697;BME280;68167;59.120;37.898;2023-09-12T04:57:07;100525.47;;;11.96;79.63
71697;BME280;68167;59.120;37.898;2023-09-12T04:59:34;100602.13;;;12.44;79.59
71697;BME280;68167;59.120;37.898;2023-09-12T05:02:01;100569.69;;;12.31;79.56
71697;BME280;68167;59.120;37.898;2023-09-12T05:04:28;100553.09;;;12.29;79.35
71697;BME280;68167;59.120;37.898;2023-09-12T05:06:54;100589.22;;;12.58;79.50
71697;BME280;68167;59.120;37.898;2023-09-12T05:09:21;100577.16;;;12.56;79.37
71697;BME280;68167;59.120;37.898;2023-09-12T05:11:47;100597.09;;;12.70;79.46
71697;BME280;68167;59.120;37.898;2023-09-12T05:14:14;100598.47;;;12.72;79.03
71697;BME280;68167;59.120;37.898;2023-09-12T05:16:41;100576.72;;;12.64;78.41
71697;BME280;68167;59.120;37.898;2023-09-12T05:19:08;100556.56;;;12.51;78.63
71697;BME280;68167;59.120;37.898;2023-09-12T05:21:35;100561.44;;;12.59;79.04
71697;BME280;68167;59.120;37.898;2023-09-12T05:24:01;100590.63;;;12.88;79.01
71697;BME280;68167;59.120;37.898;2023-09-12T05:26:28;100580.72;;;12.88;78.56
71697;BME280;68167;59.120;37.898;2023-09-12T05:28:54;100530.47;;;12.58;79.05
71697;BME280;68167;59.120;37.898;2023-09-12T05:31:21;100605.16;;;13.02;78.56
71697;BME280;68167;59.120;37.898;2023-09-12T05:33:48;100557.63;;;12.77;78.68
71697;BME280;68167;59.120;37.898;2023-09-12T05:36:15;100546.94;;;12.77;78.10
71697;BME280;68167;59.120;37.898;2023-09-12T05:38:42;100586.19;;;13.03;78.58
71697;BME280;68167;59.120;37.898;2023-09-12T05:41:09;100591.91;;;13.12;78.31
71697;BME280;68167;59.120;37.898;2023-09-12T05:43:36;100586.31;;;13.13;77.92
71697;BME280;68167;59.120;37.898;2023-09-12T05:46:03;100602.72;;;13.22;78.48
71697;BME280;68167;59.120;37.898;2023-09-12T05:48:30;100596.31;;;13.23;78.44
71697;BME280;68167;59.120;37.898;2023-09-12T05:50:56;100591.00;;;13.28;78.06
71697;BME280;68167;59.120;37.898;2023-09-12T05:53:23;100555.78;;;13.09;77.73
71697;BME280;68167;59.120;37.898;2023-09-12T05:55:50;100570.50;;;13.12;77.69
71697;BME280;68167;59.120;37.898;2023-09-12T05:58:17;100612.53;;;13.43;77.60
71697;BME280;68167;59.120;37.898;2023-09-12T06:00:44;100574.41;;;13.26;77.97
71697;BME280;68167;59.120;37.898;2023-09-12T06:03:14;100587.88;;;13.36;77.96
71697;BME280;68167;59.120;37.898;2023-09-12T06:05:41;100619.34;;;13.56;77.69
71697;BME280;68167;59.120;37.898;2023-09-12T06:08:08;100634.13;;;13.64;77.38
71697;BME280;68167;59.120;37.898;2023-09-12T06:10:34;100604.59;;;13.54;77.44
71697;BME280;68167;59.120;37.898;2023-09-12T06:13:01;100593.00;;;13.43;77.11
71697;BME280;68167;59.120;37.898;2023-09-12T06:15:27;100599.75;;;13.50;77.09
71697;BME280;68167;59.120;37.898;2023-09-12T06:17:54;100584.19;;;13.42;76.71
71697;BME280;68167;59.120;37.898;2023-09-12T06:20:21;100626.66;;;13.71;76.84
71697;BME280;68167;59.120;37.898;2023-09-12T06:22:48;100619.97;;;13.73;76.85
71697;BME280;68167;59.120;37.898;2023-09-12T06:25:15;100611.72;;;13.80;76.80
71697;BME280;68167;59.120;37.898;2023-09-12T06:27:42;100554.53;;;13.49;76.23
71697;BME280;68167;59.120;37.898;2023-09-12T06:30:08;100580.91;;;13.72;76.22
71697;BME280;68167;59.120;37.898;2023-09-12T06:32:35;100618.81;;;13.96;76.01
71697;BME280;68167;59.120;37.898;2023-09-12T06:35:02;100607.81;;;13.93;75.75
71697;BME280;68167;59.120;37.898;2023-09-12T06:37:31;100581.75;;;13.78;75.62
71697;BME280;68167;59.120;37.898;2023-09-12T06:39:58;100623.41;;;14.06;75.44
71697;BME280;68167;59.120;37.898;2023-09-12T06:42:24;100592.81;;;13.92;75.41
71697;BME280;68167;59.120;37.898;2023-09-12T06:44:50;100600.38;;;14.05;75.42
71697;BME280;68167;59.120;37.898;2023-09-12T06:47:17;100557.97;;;13.87;74.94
71697;BME280;68167;59.120;37.898;2023-09-12T06:49:43;100628.38;;;14.34;74.95
71697;BME280;68167;59.120;37.898;2023-09-12T06:52:09;100577.94;;;14.11;74.92
71697;BME280;68167;59.120;37.898;2023-09-12T06:54:36;100581.22;;;14.23;74.79
71697;BME280;68167;59.120;37.898;2023-09-12T06:57:02;100634.41;;;14.62;74.64
71697;BME280;68167;59.120;37.898;2023-09-12T06:59:29;100621.28;;;14.60;74.40
71697;BME280;68167;59.120;37.898;2023-09-12T07:01:55;100637.69;;;14.74;74.00
71697;BME280;68167;59.120;37.898;2023-09-12T07:04:22;100641.75;;;14.81;74.01
71697;BME280;68167;59.120;37.898;2023-09-12T07:06:48;100620.00;;;14.73;73.67
71697;BME280;68167;59.120;37.898;2023-09-12T07:09:14;100581.56;;;14.42;73.27
71697;BME280;68167;59.120;37.898;2023-09-12T07:11:43;100624.53;;;14.67;73.20
71697;BME280;68167;59.120;37.898;2023-09-12T07:14:10;100634.19;;;14.73;73.04
71697;BME280;68167;59.120;37.898;2023-09-12T07:16:37;100647.34;;;14.75;72.97
71697;BME280;68167;59.120;37.898;2023-09-12T07:19:03;100641.97;;;14.75;72.93
71697;BME280;68167;59.120;37.898;2023-09-12T07:21:31;100645.75;;;14.84;72.82
71697;BME280;68167;59.120;37.898;2023-09-12T07:23:58;100650.59;;;14.87;72.84
71697;BME280;68167;59.120;37.898;2023-09-12T07:26:24;100646.03;;;14.88;73.16
71697;BME280;68167;59.120;37.898;2023-09-12T07:28:51;100588.59;;;14.58;72.83
71697;BME280;68167;59.120;37.898;2023-09-12T07:31:17;100621.91;;;14.88;72.47
71697;BME280;68167;59.120;37.898;2023-09-12T07:33:47;100657.06;;;15.11;72.42
71697;BME280;68167;59.120;37.898;2023-09-12T07:36:13;100613.09;;;14.92;72.11
71697;BME280;68167;59.120;37.898;2023-09-12T07:38:40;100658.72;;;15.23;71.71
71697;BME280;68167;59.120;37.898;2023-09-12T07:41:07;100640.47;;;15.14;71.60
71697;BME280;68167;59.120;37.898;2023-09-12T07:43:34;100640.75;;;15.28;71.49
71697;BME280;68167;59.120;37.898;2023-09-12T07:46:00;100651.50;;;15.38;71.43
71697;BME280;68167;59.120;37.898;2023-09-12T07:48:29;100648.81;;;15.43;71.49
71697;BME280;68167;59.120;37.898;2023-09-12T07:50:55;100655.53;;;15.56;71.08
71697;BME280;68167;59.120;37.898;2023-09-12T07:53:22;100658.22;;;15.66;70.75
71697;BME280;68167;59.120;37.898;2023-09-12T07:55:48;100618.22;;;15.44;70.46
71697;BME280;68167;59.120;37.898;2023-09-12T07:58:16;100657.44;;;15.76;70.11
71697;BME280;68167;59.120;37.898;2023-09-12T08:00:45;100646.69;;;15.71;70.10
71697;BME280;68167;59.120;37.898;2023-09-12T08:03:13;100666.00;;;15.83;69.91
71697;BME280;68167;59.120;37.898;2023-09-12T08:05:40;100650.19;;;15.76;69.71
71697;BME280;68167;59.120;37.898;2023-09-12T08:08:06;100617.97;;;15.56;69.46
71697;BME280;68167;59.120;37.898;2023-09-12T08:10:32;100652.31;;;15.79;69.42
71697;BME280;68167;59.120;37.898;2023-09-12T08:12:59;100582.28;;;15.45;69.73
71697;BME280;68167;59.120;37.898;2023-09-12T08:15:25;100654.19;;;15.89;69.47
71697;BME280;68167;59.120;37.898;2023-09-12T08:17:53;100652.31;;;15.95;69.46
71697;BME280;68167;59.120;37.898;2023-09-12T08:20:20;100659.03;;;16.02;69.40
71697;BME280;68167;59.120;37.898;2023-09-12T08:22:47;100602.94;;;15.75;69.22
71697;BME280;68167;59.120;37.898;2023-09-12T08:25:14;100648.81;;;16.04;69.64
71697;BME280;68167;59.120;37.898;2023-09-12T08:27:41;100614.72;;;15.95;69.28
71697;BME280;68167;59.120;37.898;2023-09-12T08:30:12;100637.50;;;16.12;69.01
71697;BME280;68167;59.120;37.898;2023-09-12T08:32:40;100654.97;;;16.20;68.87
71697;BME280;68167;59.120;37.898;2023-09-12T08:35:11;100624.63;;;16.09;68.87
71697;BME280;68167;59.120;37.898;2023-09-12T08:37:40;100629.66;;;16.26;68.85
71697;BME280;68167;59.120;37.898;2023-09-12T08:40:09;100604.47;;;16.12;68.98
71697;BME280;68167;59.120;37.898;2023-09-12T08:42:41;100607.69;;;16.14;68.77
71697;BME280;68167;59.120;37.898;2023-09-12T08:45:16;100646.84;;;16.35;68.83
71697;BME280;68167;59.120;37.898;2023-09-12T08:47:45;100581.41;;;15.96;68.96
71697;BME280;68167;59.120;37.898;2023-09-12T08:50:13;100642.53;;;16.34;69.25
71697;BME280;68167;59.120;37.898;2023-09-12T08:52:41;100604.69;;;16.26;68.93
71697;BME280;68167;59.120;37.898;2023-09-12T08:55:11;100643.00;;;16.57;68.52
71697;BME280;68167;59.120;37.898;2023-09-12T08:57:42;100632.81;;;16.54;68.12
71697;BME280;68167;59.120;37.898;2023-09-12T09:00:10;100624.19;;;16.57;68.20
71697;BME280;68167;59.120;37.898;2023-09-12T09:02:41;100648.34;;;16.77;67.94
71697;BME280;68167;59.120;37.898;2023-09-12T09:05:09;100611.81;;;16.66;67.99
71697;BME280;68167;59.120;37.898;2023-09-12T09:07:40;100632.09;;;16.92;68.27
71697;BME280;68167;59.120;37.898;2023-09-12T09:10:14;100581.13;;;16.72;68.30
71697;BME280;68167;59.120;37.898;2023-09-12T09:12:45;100601.41;;;16.93;67.23
71697;BME280;68167;59.120;37.898;2023-09-12T09:15:29;100630.00;;;17.28;67.54
71697;BME280;68167;59.120;37.898;2023-09-12T09:17:57;100591.94;;;17.06;66.33
71697;BME280;68167;59.120;37.898;2023-09-12T09:20:30;100556.78;;;16.92;66.56
71697;BME280;68167;59.120;37.898;2023-09-12T09:23:02;100623.44;;;17.39;65.97
71697;BME280;68167;59.120;37.898;2023-09-12T09:25:33;100632.28;;;17.45;66.11
71697;BME280;68167;59.120;37.898;2023-09-12T09:28:03;100599.91;;;17.21;65.99
71697;BME280;68167;59.120;37.898;2023-09-12T09:30:45;100629.03;;;17.48;66.14
71697;BME280;68167;59.120;37.898;2023-09-12T09:33:12;100644.28;;;17.58;65.62
71697;BME280;68167;59.120;37.898;2023-09-12T09:35:45;100632.69;;;17.57;65.79
71697;BME280;68167;59.120;37.898;2023-09-12T09:38:12;100618.41;;;17.62;65.49
71697;BME280;68167;59.120;37.898;2023-09-12T09:40:43;100641.34;;;17.88;65.03
71697;BME280;68167;59.120;37.898;2023-09-12T09:43:10;100642.13;;;17.94;64.12
71697;BME280;68167;59.120;37.898;2023-09-12T09:45:45;100604.06;;;17.71;64.31
71697;BME280;68167;59.120;37.898;2023-09-12T09:48:19;100602.75;;;17.64;64.49
71697;BME280;68167;59.120;37.898;2023-09-12T09:50:47;100600.09;;;17.59;64.24
71697;BME280;68167;59.120;37.898;2023-09-12T09:53:13;100635.16;;;17.88;64.38
71697;BME280;68167;59.120;37.898;2023-09-12T09:55:40;100624.44;;;17.83;64.45
71697;BME280;68167;59.120;37.898;2023-09-12T09:58:08;100592.09;;;17.54;64.61
71697;BME280;68167;59.120;37.898;2023-09-12T10:00:36;100591.59;;;17.52;64.66
71697;BME280;68167;59.120;37.898;2023-09-12T10:03:06;100565.69;;;17.27;64.91
71697;BME280;68167;59.120;37.898;2023-09-12T10:05:37;100565.44;;;17.23;64.62
71697;BME280;68167;59.120;37.898;2023-09-12T10:08:06;100629.44;;;17.60;65.14
71697;BME280;68167;59.120;37.898;2023-09-12T10:10:38;100637.19;;;17.72;65.27
71697;BME280;68167;59.120;37.898;2023-09-12T10:13:05;100615.31;;;17.78;65.13
71697;BME280;68167;59.120;37.898;2023-09-12T10:15:34;100589.28;;;17.69;64.49
71697;BME280;68167;59.120;37.898;2023-09-12T10:18:08;100618.72;;;17.89;64.75
71697;BME280;68167;59.120;37.898;2023-09-12T10:20:38;100602.31;;;17.86;65.08
71697;BME280;68167;59.120;37.898;2023-09-12T10:23:19;100596.94;;;17.86;64.41
71697;BME280;68167;59.120;37.898;2023-09-12T10:25:47;100592.81;;;17.93;65.24
71697;BME280;68167;59.120;37.898;2023-09-12T10:28:16;100593.19;;;18.10;64.88
71697;BME280;68167;59.120;37.898;2023-09-12T10:30:45;100581.53;;;18.15;64.55
71697;BME280;68167;59.120;37.898;2023-09-12T10:33:13;100593.72;;;18.31;64.22
71697;BME280;68167;59.120;37.898;2023-09-12T10:35:40;100595.25;;;18.37;63.93
71697;BME280;68167;59.120;37.898;2023-09-12T10:38:08;100593.81;;;18.45;63.45
71697;BME280;68167;59.120;37.898;2023-09-12T10:40:36;100603.63;;;18.60;63.48
71697;BME280;68167;59.120;37.898;2023-09-12T10:43:03;100626.06;;;18.79;63.59
71697;BME280;68167;59.120;37.898;2023-09-12T10:45:32;100565.41;;;18.53;63.38
71697;BME280;68167;59.120;37.898;2023-09-12T10:47:59;100579.47;;;18.73;62.41
71697;BME280;68167;59.120;37.898;2023-09-12T10:50:25;100590.41;;;18.82;61.76
71697;BME280;68167;59.120;37.898;2023-09-12T10:52:52;100587.53;;;18.92;62.09
71697;BME280;68167;59.120;37.898;2023-09-12T10:55:18;100612.75;;;19.20;61.54
71697;BME280;68167;59.120;37.898;2023-09-12T10:58:06;100622.16;;;19.41;61.87
71697;BME280;68167;59.120;37.898;2023-09-12T11:00:33;100618.28;;;19.48;61.22
71697;BME280;68167;59.120;37.898;2023-09-12T11:05:54;100592.56;;;19.83;60.00
71697;BME280;68167;59.120;37.898;2023-09-12T11:08:21;100607.41;;;20.13;59.86
71697;BME280;68167;59.120;37.898;2023-09-12T11:11:20;100608.88;;;20.32;60.53
71697;BME280;68167;59.120;37.898;2023-09-12T11:13:49;100576.44;;;20.32;59.33
71697;BME280;68167;59.120;37.898;2023-09-12T11:16:28;100583.28;;;20.44;58.99
71697;BME280;68167;59.120;37.898;2023-09-12T11:21:43;100587.78;;;20.84;56.69
71697;BME280;68167;59.120;37.898;2023-09-12T11:24:09;100601.28;;;20.98;57.83
71697;BME280;68167;59.120;37.898;2023-09-12T11:26:55;100599.31;;;21.12;58.56
71697;BME280;68167;59.120;37.898;2023-09-12T11:29:22;100593.47;;;21.32;56.87
71697;BME280;68167;59.120;37.898;2023-09-12T11:31:56;100570.25;;;21.40;56.35
71697;BME280;68167;59.120;37.898;2023-09-12T11:34:26;100569.47;;;21.48;55.18
71697;BME280;68167;59.120;37.898;2023-09-12T11:36:57;100569.22;;;21.58;54.52
71697;BME280;68167;59.120;37.898;2023-09-12T11:39:31;100574.72;;;21.76;54.00
71697;BME280;68167;59.120;37.898;2023-09-12T11:41:59;100594.28;;;21.95;54.34
71697;BME280;68167;59.120;37.898;2023-09-12T11:44:26;100587.19;;;22.08;54.05
71697;BME280;68167;59.120;37.898;2023-09-12T11:46:53;100585.22;;;21.99;53.72
71697;BME280;68167;59.120;37.898;2023-09-12T11:49:20;100599.47;;;21.83;53.59
71697;BME280;68167;59.120;37.898;2023-09-12T11:51:52;100592.00;;;21.57;53.98
71697;BME280;68167;59.120;37.898;2023-09-12T11:56:49;100586.56;;;20.90;54.28
71697;BME280;68167;59.120;37.898;2023-09-12T11:59:16;100580.06;;;20.55;54.46
71697;BME280;68167;59.120;37.898;2023-09-12T12:01:45;100587.06;;;20.29;55.01
71697;BME280;68167;59.120;37.898;2023-09-12T12:04:13;100560.25;;;19.91;55.91
71697;BME280;68167;59.120;37.898;2023-09-12T12:06:39;100552.31;;;19.67;56.09
71697;BME280;68167;59.120;37.898;2023-09-12T12:09:06;100585.44;;;19.73;56.57
71697;BME280;68167;59.120;37.898;2023-09-12T12:11:33;100584.59;;;19.59;57.02
71697;BME280;68167;59.120;37.898;2023-09-12T12:14:12;100577.84;;;19.42;57.59
71697;BME280;68167;59.120;37.898;2023-09-12T12:16:39;100554.75;;;19.18;57.33
71697;BME280;68167;59.120;37.898;2023-09-12T12:19:06;100542.31;;;19.03;57.39
71697;BME280;68167;59.120;37.898;2023-09-12T12:21:35;100585.84;;;19.15;57.63
71697;BME280;68167;59.120;37.898;2023-09-12T12:24:01;100539.94;;;18.83;58.26
71697;BME280;68167;59.120;37.898;2023-09-12T12:26:30;100571.84;;;18.94;59.27
71697;BME280;68167;59.120;37.898;2023-09-12T12:28:59;100573.31;;;18.87;58.91
71697;BME280;68167;59.120;37.898;2023-09-12T12:31:26;100535.47;;;18.54;58.86
71697;BME280;68167;59.120;37.898;2023-09-12T12:33:54;100513.88;;;18.35;59.70
71697;BME280;68167;59.120;37.898;2023-09-12T12:36:21;100578.44;;;18.69;59.33
71697;BME280;68167;59.120;37.898;2023-09-12T12:38:49;100582.75;;;18.70;59.68
71697;BME280;68167;59.120;37.898;2023-09-12T12:41:16;100510.44;;;18.30;59.69
71697;BME280;68167;59.120;37.898;2023-09-12T12:43:50;100580.59;;;18.86;59.85
71697;BME280;68167;59.120;37.898;2023-09-12T12:46:21;100535.00;;;18.71;59.80
71697;BME280;68167;59.120;37.898;2023-09-12T12:48:48;100527.19;;;18.69;59.27
71697;BME280;68167;59.120;37.898;2023-09-12T12:51:22;100553.00;;;18.75;59.16
71697;BME280;68167;59.120;37.898;2023-09-12T12:53:54;100538.84;;;18.65;59.47
71697;BME280;68167;59.120;37.898;2023-09-12T12:56:23;100564.53;;;18.81;59.41